createdAt,value
2022-10-17T00:04:24.551Z,24.42
2022-10-17T00:09:27.274Z,21.33
2022-10-17T00:14:29.986Z,21.75
2022-10-17T00:19:32.749Z,21.55
2022-10-17T00:24:35.484Z,20.70
2022-10-17T00:29:38.187Z,20.65
2022-10-17T00:34:41.144Z,22.13
2022-10-17T00:39:43.826Z,20.42
2022-10-17T00:44:47.951Z,20.67
2022-10-17T00:49:50.842Z,20.52
2022-10-17T00:55:03.190Z,21.88
2022-10-17T01:00:09.150Z,23.08
2022-10-17T01:05:12.279Z,21.65
2022-10-17T01:10:15.614Z,20.52
2022-10-17T01:15:24.358Z,22.85
2022-10-17T01:20:54.403Z,21.85
2022-10-17T01:25:58.115Z,21.98
2022-10-17T01:31:17.196Z,21.65
2022-10-17T01:36:47.109Z,22.02
2022-10-17T01:42:01.762Z,22.10
2022-10-17T01:47:11.758Z,21.63
2022-10-17T01:52:27.513Z,22.90
2022-10-17T01:57:36.514Z,24.90
2022-10-17T02:02:40.028Z,25.08
2022-10-17T02:07:42.836Z,25.45
2022-10-17T02:12:55.698Z,26.10
2022-10-17T02:18:08.889Z,26.97
2022-10-17T02:28:29.020Z,28.52
2022-10-17T02:33:54.756Z,28.05
2022-10-17T02:38:58.473Z,50.08
2022-10-17T02:44:03.028Z,27.02
2022-10-17T02:49:25.034Z,16.80
2022-10-17T02:54:38.178Z,11.80
2022-10-17T02:59:42.269Z,13.93
2022-10-17T03:04:46.808Z,15.50
2022-10-17T03:09:49.496Z,15.48
2022-10-17T03:14:52.172Z,16.42
2022-10-17T03:19:55.451Z,16.83
2022-10-17T03:24:58.212Z,17.05
2022-10-17T03:30:01.174Z,17.25
2022-10-17T03:35:05.964Z,17.08
2022-10-17T03:40:09.129Z,18.23
2022-10-17T03:45:11.888Z,17.90
2022-10-17T03:50:15.415Z,17.88
2022-10-17T03:55:19.344Z,17.23
2022-10-17T04:00:22.101Z,15.63
2022-10-17T04:05:31.039Z,14.18
2022-10-17T04:10:33.765Z,14.40
2022-10-17T04:15:36.501Z,14.88
2022-10-17T04:20:40.510Z,15.15
2022-10-17T04:25:43.355Z,15.50
2022-10-17T04:30:46.456Z,16.35
2022-10-17T04:36:06.878Z,16.77
2022-10-17T04:41:14.466Z,16.63
2022-10-17T04:46:17.294Z,17.83
2022-10-17T04:51:23.273Z,19.50
2022-10-17T04:56:47.631Z,18.27
2022-10-17T05:01:50.849Z,19.30
2022-10-17T05:06:54.417Z,13.98
2022-10-17T05:12:08.102Z,15.00
2022-10-17T05:17:15.632Z,14.82
2022-10-17T05:22:18.334Z,13.73
2022-10-17T05:27:21.097Z,14.63
2022-10-17T05:32:24.023Z,13.57
2022-10-17T05:37:26.768Z,14.02
2022-10-17T05:42:32.451Z,14.57
2022-10-17T05:47:35.671Z,14.75
2022-10-17T05:52:39.375Z,13.45
2022-10-17T05:57:46.945Z,14.07
2022-10-17T06:02:53.457Z,13.65
2022-10-17T06:07:59.615Z,13.98
2022-10-17T06:13:06.630Z,13.27
2022-10-17T06:18:11.028Z,14.13
2022-10-17T06:23:13.906Z,15.30
2022-10-17T06:28:29.012Z,17.30
2022-10-17T06:33:33.335Z,16.27
2022-10-17T06:38:36.568Z,12.82
2022-10-17T06:43:47.538Z,12.85
2022-10-17T06:49:02.066Z,13.90
2022-10-17T06:54:18.508Z,14.60
2022-10-17T06:59:38.101Z,13.85
2022-10-17T07:04:48.118Z,14.57
2022-10-17T07:09:52.001Z,13.77
2022-10-17T07:14:56.054Z,13.73
2022-10-17T07:19:59.237Z,14.20
2022-10-17T07:25:02.282Z,15.43
2022-10-17T07:30:10.786Z,14.43
2022-10-17T07:35:27.381Z,14.77
2022-10-17T07:40:30.786Z,15.90
2022-10-17T07:45:33.500Z,15.43
2022-10-17T07:50:36.372Z,20.15
2022-10-17T07:55:39.862Z,14.98
2022-10-17T08:00:42.823Z,15.32
2022-10-17T08:05:45.697Z,16.75
2022-10-17T08:10:48.364Z,13.90
2022-10-17T08:15:51.362Z,15.52
2022-10-17T08:20:59.395Z,16.33
2022-10-17T08:26:04.290Z,16.10
2022-10-17T08:31:11.799Z,16.88
2022-10-17T08:36:16.431Z,14.77
2022-10-17T08:41:48.845Z,47.80
2022-10-17T08:46:53.147Z,19.08
2022-10-17T08:52:03.990Z,18.73
2022-10-17T08:57:12.865Z,16.80
2022-10-17T09:02:15.471Z,18.27
2022-10-17T09:07:27.694Z,15.23
2022-10-17T09:12:36.630Z,16.02
2022-10-17T09:18:05.494Z,15.38
2022-10-17T09:23:16.919Z,17.73
2022-10-17T09:28:38.305Z,16.00
2022-10-17T09:33:54.683Z,21.58
2022-10-17T09:38:59.696Z,26.75
2022-10-17T09:44:19.525Z,18.08
2022-10-17T09:49:29.474Z,21.50
2022-10-17T09:54:53.339Z,16.35
2022-10-17T10:00:00.791Z,19.67
2022-10-17T10:05:06.393Z,19.70
2022-10-17T10:10:26.253Z,17.33
2022-10-17T10:15:33.025Z,18.15
2022-10-17T10:20:37.809Z,21.42
2022-10-17T10:25:53.499Z,16.47
2022-10-17T10:30:57.325Z,26.50
2022-10-17T10:36:03.813Z,17.25
2022-10-17T10:41:08.561Z,18.08
2022-10-17T10:46:22.901Z,18.95
2022-10-17T10:51:44.959Z,17.23
2022-10-17T10:56:53.308Z,16.20
2022-10-17T11:02:28.324Z,16.60
2022-10-17T11:07:35.861Z,17.15
2022-10-17T11:12:45.963Z,17.30
2022-10-17T11:17:59.201Z,16.83
2022-10-17T11:23:26.596Z,15.57
2022-10-17T11:28:30.506Z,17.48
2022-10-17T11:33:55.135Z,16.73
2022-10-17T11:39:07.165Z,30.47
2022-10-17T11:44:23.721Z,17.83
2022-10-17T11:49:40.631Z,20.08
2022-10-17T11:55:00.109Z,20.48
2022-10-17T12:00:41.669Z,21.30
2022-10-17T12:05:55.251Z,21.55
2022-10-17T12:11:03.951Z,22.50
2022-10-17T12:16:22.134Z,24.40
2022-10-17T12:21:28.420Z,21.40
2022-10-17T12:26:34.452Z,77.03
2022-10-17T12:31:37.342Z,41.28
2022-10-17T12:36:40.362Z,55.03
2022-10-17T12:41:44.794Z,40.92
2022-10-17T12:47:29.368Z,29.08
2022-10-17T12:52:33.383Z,25.10
2022-10-17T12:57:51.259Z,24.85
2022-10-17T13:02:55.697Z,20.90
2022-10-17T13:08:07.507Z,20.88
2022-10-17T13:13:38.005Z,22.67
2022-10-17T13:18:41.268Z,20.25
2022-10-17T13:23:43.961Z,21.60
2022-10-17T13:29:01.050Z,23.42
2022-10-17T13:34:06.507Z,24.25
2022-10-17T13:39:13.044Z,24.83
2022-10-17T13:44:21.227Z,25.70
2022-10-17T13:49:34.303Z,25.60
2022-10-17T13:54:41.896Z,23.23
2022-10-17T13:59:48.019Z,24.95
2022-10-17T14:05:16.780Z,24.23
2022-10-17T14:10:24.705Z,22.10
2022-10-17T14:15:30.160Z,20.88
2022-10-17T14:26:10.804Z,18.75
2022-10-17T14:31:16.257Z,20.05
2022-10-17T14:46:53.166Z,23.25
2022-10-17T14:52:17.729Z,22.85
2022-10-17T14:57:41.780Z,23.85
2022-10-17T15:02:45.601Z,23.17
2022-10-17T15:07:48.260Z,18.05
2022-10-17T15:12:57.558Z,14.23
2022-10-17T15:18:02.678Z,12.50
2022-10-17T15:23:05.527Z,14.50
2022-10-17T15:28:09.348Z,12.48
2022-10-17T15:33:11.982Z,11.15
2022-10-17T15:38:18.290Z,10.98
2022-10-17T15:43:20.950Z,7.03
2022-10-17T15:48:29.716Z,6.95
2022-10-17T15:53:32.329Z,4.00
2022-10-17T15:58:37.913Z,2.90
2022-10-17T16:03:40.677Z,3.42
2022-10-17T16:08:43.676Z,3.65
2022-10-17T16:13:51.637Z,3.38
2022-10-17T16:18:54.651Z,3.65
2022-10-17T16:23:58.176Z,3.15
2022-10-17T16:29:03.272Z,3.97
2022-10-17T16:34:07.180Z,4.43
2022-10-17T16:39:10.046Z,4.90
2022-10-17T16:44:14.950Z,4.30
2022-10-17T16:49:18.660Z,3.25
2022-10-17T16:54:21.549Z,3.90
2022-10-17T16:59:24.852Z,4.15
2022-10-17T17:04:27.625Z,4.10
2022-10-17T17:09:30.223Z,5.18
2022-10-17T17:14:32.917Z,4.25
2022-10-17T17:19:35.537Z,4.32
2022-10-17T17:24:38.216Z,3.20
2022-10-17T17:29:41.076Z,3.08
2022-10-17T17:34:43.747Z,2.97
2022-10-17T17:39:46.387Z,3.30
2022-10-17T17:44:50.088Z,3.30
2022-10-17T17:49:52.724Z,3.40
2022-10-17T17:54:55.796Z,3.53
2022-10-17T17:59:58.544Z,3.13
2022-10-17T18:05:01.166Z,3.75
2022-10-17T18:10:06.350Z,3.38
2022-10-17T18:15:09.471Z,3.53
2022-10-17T18:20:12.598Z,3.75
2022-10-17T18:25:15.351Z,3.45
2022-10-17T18:30:21.156Z,3.50
2022-10-17T18:35:26.486Z,3.70
2022-10-17T18:40:29.278Z,3.33
2022-10-17T18:45:31.948Z,3.95
2022-10-17T18:50:34.671Z,4.30
2022-10-17T18:55:39.985Z,4.80
2022-10-17T19:00:42.841Z,4.93
2022-10-17T19:05:46.620Z,4.78
2022-10-17T19:10:49.311Z,5.18
2022-10-17T19:15:52.052Z,6.43
2022-10-17T19:20:54.844Z,5.93
2022-10-17T19:26:11.597Z,5.47
2022-10-17T19:31:17.008Z,6.00
2022-10-17T19:36:22.150Z,7.43
2022-10-17T19:41:24.878Z,6.78
2022-10-17T19:46:28.929Z,7.65
2022-10-17T19:51:32.071Z,7.15
2022-10-17T19:56:38.595Z,6.88
2022-10-17T20:01:41.450Z,5.95
2022-10-17T20:06:44.228Z,7.38
2022-10-17T20:11:47.044Z,8.27
2022-10-17T20:16:52.631Z,7.38
2022-10-17T20:21:55.343Z,7.97
2022-10-17T20:26:58.083Z,7.93
2022-10-17T20:32:01.313Z,8.75
2022-10-17T20:37:04.316Z,7.70
2022-10-17T20:42:07.112Z,8.45
2022-10-17T20:47:21.068Z,8.10
2022-10-17T20:52:32.517Z,7.97
2022-10-17T20:57:35.082Z,8.13
2022-10-17T21:02:37.760Z,7.78
2022-10-17T21:07:40.418Z,7.70
2022-10-17T21:12:53.817Z,8.20
2022-10-17T21:17:57.192Z,8.43
2022-10-17T21:23:00.913Z,8.88
2022-10-17T21:28:03.700Z,8.95
2022-10-17T21:33:06.372Z,8.30
2022-10-17T21:38:09.052Z,8.80
2022-10-17T21:43:11.628Z,8.95
2022-10-17T21:48:14.253Z,9.85
2022-10-17T21:53:16.883Z,10.07
2022-10-17T21:58:20.839Z,8.75
2022-10-17T22:03:23.492Z,9.40
2022-10-17T22:08:26.412Z,9.32
2022-10-17T22:13:29.386Z,8.90
2022-10-17T22:18:32.204Z,9.93
2022-10-17T22:23:36.343Z,10.35
2022-10-17T22:28:39.695Z,9.68
2022-10-17T22:33:42.382Z,10.07
2022-10-17T22:38:45.286Z,9.55
2022-10-17T22:43:47.825Z,9.52
2022-10-17T22:48:50.642Z,10.10
2022-10-17T22:53:53.407Z,9.85
2022-10-17T22:58:56.109Z,9.70
2022-10-17T23:03:58.819Z,9.60
2022-10-17T23:09:01.561Z,9.77
2022-10-17T23:14:04.196Z,9.75
2022-10-17T23:19:06.907Z,10.00
2022-10-17T23:24:09.803Z,9.93
2022-10-17T23:29:12.418Z,10.30
2022-10-17T23:34:15.086Z,10.77
2022-10-17T23:39:17.730Z,9.43
2022-10-17T23:44:20.396Z,10.30
2022-10-17T23:49:23.071Z,9.50
2022-10-17T23:54:25.777Z,9.60
2022-10-17T23:59:28.468Z,8.93
